sensor_id;sensor_type;location;lat;lon;timestamp;P1;durP1;ratioP1;P2;durP2;ratioP2
47617;SDS011;33336;36.728;-4.414;2023-03-23T00:00:31;2.85;;;1.77;;
47617;SDS011;33336;36.728;-4.414;2023-03-23T00:05:37;1.63;;;1.23;;
47617;SDS011;33336;36.728;-4.414;2023-03-23T00:10:41;4.30;;;1.67;;
47617;SDS011;33336;36.728;-4.414;2023-03-23T00:15:45;2.00;;;1.00;;
47617;SDS011;33336;36.728;-4.414;2023-03-23T00:20:51;1.15;;;0.88;;
47617;SDS011;33336;36.728;-4.414;2023-03-23T00:25:55;3.65;;;1.27;;
47617;SDS011;33336;36.728;-4.414;2023-03-23T00:30:58;2.42;;;1.25;;
47617;SDS011;33336;36.728;-4.414;2023-03-23T00:36:04;5.00;;;1.60;;
47617;SDS011;33336;36.728;-4.414;2023-03-23T00:41:09;3.85;;;1.20;;
47617;SDS011;33336;36.728;-4.414;2023-03-23T00:46:12;2.40;;;1.10;;
47617;SDS011;33336;36.728;-4.414;2023-03-23T00:51:17;2.60;;;1.10;;
47617;SDS011;33336;36.728;-4.414;2023-03-23T00:56:20;2.05;;;1.20;;
47617;SDS011;33336;36.728;-4.414;2023-03-23T01:01:24;2.65;;;1.05;;
47617;SDS011;33336;36.728;-4.414;2023-03-23T01:06:29;3.83;;;1.00;;
47617;SDS011;33336;36.728;-4.414;2023-03-23T01:11:35;1.80;;;1.05;;
47617;SDS011;33336;36.728;-4.414;2023-03-23T01:16:39;2.30;;;1.20;;
47617;SDS011;33336;36.728;-4.414;2023-03-23T01:21:44;8.35;;;1.52;;
47617;SDS011;33336;36.728;-4.414;2023-03-23T01:26:47;0.95;;;0.80;;
47617;SDS011;33336;36.728;-4.414;2023-03-23T01:31:50;1.65;;;1.10;;
47617;SDS011;33336;36.728;-4.414;2023-03-23T01:36:55;2.67;;;0.85;;
47617;SDS011;33336;36.728;-4.414;2023-03-23T01:41:58;1.90;;;0.95;;
47617;SDS011;33336;36.728;-4.414;2023-03-23T01:47:02;1.33;;;1.17;;
47617;SDS011;33336;36.728;-4.414;2023-03-23T01:52:07;2.65;;;1.00;;
47617;SDS011;33336;36.728;-4.414;2023-03-23T01:57:18;2.50;;;0.90;;
47617;SDS011;33336;36.728;-4.414;2023-03-23T02:02:24;2.47;;;1.05;;
47617;SDS011;33336;36.728;-4.414;2023-03-23T02:07:30;2.50;;;1.10;;
47617;SDS011;33336;36.728;-4.414;2023-03-23T02:12:34;4.00;;;0.90;;
47617;SDS011;33336;36.728;-4.414;2023-03-23T02:17:38;2.17;;;1.02;;
47617;SDS011;33336;36.728;-4.414;2023-03-23T02:23:01;1.73;;;0.75;;
47617;SDS011;33336;36.728;-4.414;2023-03-23T02:28:43;4.35;;;1.20;;
47617;SDS011;33336;36.728;-4.414;2023-03-23T02:34:09;3.05;;;1.17;;
47617;SDS011;33336;36.728;-4.414;2023-03-23T02:39:18;2.30;;;0.80;;
47617;SDS011;33336;36.728;-4.414;2023-03-23T02:44:22;2.97;;;1.70;;
47617;SDS011;33336;36.728;-4.414;2023-03-23T02:54:38;1.65;;;0.80;;
47617;SDS011;33336;36.728;-4.414;2023-03-23T02:59:43;2.58;;;0.88;;
47617;SDS011;33336;36.728;-4.414;2023-03-23T03:04:52;1.58;;;0.70;;
47617;SDS011;33336;36.728;-4.414;2023-03-23T03:10:02;1.02;;;0.82;;
47617;SDS011;33336;36.728;-4.414;2023-03-23T03:15:12;3.13;;;0.95;;
47617;SDS011;33336;36.728;-4.414;2023-03-23T03:20:25;2.63;;;0.80;;
47617;SDS011;33336;36.728;-4.414;2023-03-23T03:25:30;3.30;;;0.95;;
47617;SDS011;33336;36.728;-4.414;2023-03-23T03:30:33;2.28;;;0.70;;
47617;SDS011;33336;36.728;-4.414;2023-03-23T03:35:40;1.85;;;0.85;;
47617;SDS011;33336;36.728;-4.414;2023-03-23T03:40:45;1.55;;;0.70;;
47617;SDS011;33336;36.728;-4.414;2023-03-23T03:45:48;2.40;;;0.85;;
47617;SDS011;33336;36.728;-4.414;2023-03-23T03:50:54;4.85;;;1.17;;
47617;SDS011;33336;36.728;-4.414;2023-03-23T03:55:57;1.48;;;0.80;;
47617;SDS011;33336;36.728;-4.414;2023-03-23T04:01:03;0.63;;;0.63;;
47617;SDS011;33336;36.728;-4.414;2023-03-23T04:06:08;2.13;;;0.75;;
47617;SDS011;33336;36.728;-4.414;2023-03-23T04:11:14;1.77;;;0.82;;
47617;SDS011;33336;36.728;-4.414;2023-03-23T04:16:17;1.48;;;0.90;;
47617;SDS011;33336;36.728;-4.414;2023-03-23T04:21:23;4.28;;;1.08;;
47617;SDS011;33336;36.728;-4.414;2023-03-23T04:26:30;0.93;;;0.82;;
47617;SDS011;33336;36.728;-4.414;2023-03-23T04:31:35;1.70;;;0.93;;
47617;SDS011;33336;36.728;-4.414;2023-03-23T04:36:39;3.10;;;1.20;;
47617;SDS011;33336;36.728;-4.414;2023-03-23T04:41:43;2.78;;;1.15;;
47617;SDS011;33336;36.728;-4.414;2023-03-23T04:46:47;1.95;;;1.23;;
47617;SDS011;33336;36.728;-4.414;2023-03-23T04:51:52;3.85;;;1.10;;
47617;SDS011;33336;36.728;-4.414;2023-03-23T04:56:55;3.08;;;1.00;;
47617;SDS011;33336;36.728;-4.414;2023-03-23T05:01:59;1.52;;;0.93;;
47617;SDS011;33336;36.728;-4.414;2023-03-23T05:07:04;2.38;;;0.98;;
47617;SDS011;33336;36.728;-4.414;2023-03-23T05:12:09;1.70;;;0.85;;
47617;SDS011;33336;36.728;-4.414;2023-03-23T05:17:12;3.40;;;1.30;;
47617;SDS011;33336;36.728;-4.414;2023-03-23T05:22:19;3.72;;;1.67;;
47617;SDS011;33336;36.728;-4.414;2023-03-23T05:27:23;3.30;;;1.17;;
47617;SDS011;33336;36.728;-4.414;2023-03-23T05:32:30;4.35;;;1.60;;
47617;SDS011;33336;36.728;-4.414;2023-03-23T05:37:35;1.95;;;1.48;;
47617;SDS011;33336;36.728;-4.414;2023-03-23T05:42:39;2.88;;;1.30;;
47617;SDS011;33336;36.728;-4.414;2023-03-23T05:47:42;1.83;;;1.50;;
47617;SDS011;33336;36.728;-4.414;2023-03-23T05:52:48;5.25;;;1.77;;
47617;SDS011;33336;36.728;-4.414;2023-03-23T05:57:51;7.15;;;1.48;;
47617;SDS011;33336;36.728;-4.414;2023-03-23T06:02:54;4.38;;;1.30;;
47617;SDS011;33336;36.728;-4.414;2023-03-23T06:07:59;3.30;;;1.48;;
47617;SDS011;33336;36.728;-4.414;2023-03-23T06:13:03;1.30;;;0.98;;
47617;SDS011;33336;36.728;-4.414;2023-03-23T06:18:05;3.20;;;0.77;;
47617;SDS011;33336;36.728;-4.414;2023-03-23T06:23:11;2.42;;;1.15;;
47617;SDS011;33336;36.728;-4.414;2023-03-23T06:28:14;5.05;;;1.17;;
47617;SDS011;33336;36.728;-4.414;2023-03-23T06:33:17;4.05;;;1.45;;
47617;SDS011;33336;36.728;-4.414;2023-03-23T06:38:21;2.35;;;1.35;;
47617;SDS011;33336;36.728;-4.414;2023-03-23T06:43:25;3.80;;;2.28;;
47617;SDS011;33336;36.728;-4.414;2023-03-23T06:48:28;4.80;;;1.80;;
47617;SDS011;33336;36.728;-4.414;2023-03-23T06:53:34;5.35;;;2.35;;
47617;SDS011;33336;36.728;-4.414;2023-03-23T06:58:37;5.00;;;2.40;;
47617;SDS011;33336;36.728;-4.414;2023-03-23T07:03:42;7.95;;;2.40;;
47617;SDS011;33336;36.728;-4.414;2023-03-23T07:08:47;4.25;;;2.35;;
47617;SDS011;33336;36.728;-4.414;2023-03-23T07:13:50;5.07;;;2.20;;
47617;SDS011;33336;36.728;-4.414;2023-03-23T07:18:53;5.65;;;2.00;;
47617;SDS011;33336;36.728;-4.414;2023-03-23T07:23:58;10.32;;;1.80;;
47617;SDS011;33336;36.728;-4.414;2023-03-23T07:29:00;7.63;;;1.50;;
47617;SDS011;33336;36.728;-4.414;2023-03-23T07:34:03;5.40;;;1.83;;
47617;SDS011;33336;36.728;-4.414;2023-03-23T07:39:08;3.78;;;2.22;;
47617;SDS011;33336;36.728;-4.414;2023-03-23T07:44:11;6.70;;;1.80;;
47617;SDS011;33336;36.728;-4.414;2023-03-23T07:49:14;8.98;;;2.40;;
47617;SDS011;33336;36.728;-4.414;2023-03-23T07:54:19;8.13;;;2.78;;
47617;SDS011;33336;36.728;-4.414;2023-03-23T07:59:22;4.72;;;1.40;;
47617;SDS011;33336;36.728;-4.414;2023-03-23T08:04:25;5.13;;;1.40;;
47617;SDS011;33336;36.728;-4.414;2023-03-23T08:09:30;6.53;;;2.03;;
47617;SDS011;33336;36.728;-4.414;2023-03-23T08:14:33;12.00;;;2.47;;
47617;SDS011;33336;36.728;-4.414;2023-03-23T08:19:36;7.78;;;2.70;;
47617;SDS011;33336;36.728;-4.414;2023-03-23T08:24:41;8.60;;;2.78;;
47617;SDS011;33336;36.728;-4.414;2023-03-23T08:29:44;12.82;;;1.60;;
47617;SDS011;33336;36.728;-4.414;2023-03-23T08:34:48;6.97;;;1.48;;
47617;SDS011;33336;36.728;-4.414;2023-03-23T08:39:53;7.82;;;1.60;;
47617;SDS011;33336;36.728;-4.414;2023-03-23T08:44:57;7.55;;;2.08;;
47617;SDS011;33336;36.728;-4.414;2023-03-23T08:50:00;8.77;;;2.00;;
47617;SDS011;33336;36.728;-4.414;2023-03-23T08:55:05;6.03;;;2.55;;
47617;SDS011;33336;36.728;-4.414;2023-03-23T09:00:11;5.88;;;2.47;;
47617;SDS011;33336;36.728;-4.414;2023-03-23T09:05:19;6.07;;;3.10;;
47617;SDS011;33336;36.728;-4.414;2023-03-23T09:10:27;7.80;;;2.60;;
47617;SDS011;33336;36.728;-4.414;2023-03-23T09:15:31;4.63;;;1.77;;
47617;SDS011;33336;36.728;-4.414;2023-03-23T09:20:34;5.85;;;2.08;;
47617;SDS011;33336;36.728;-4.414;2023-03-23T09:25:40;4.88;;;2.75;;
47617;SDS011;33336;36.728;-4.414;2023-03-23T09:30:43;4.75;;;2.95;;
47617;SDS011;33336;36.728;-4.414;2023-03-23T09:35:48;7.10;;;3.15;;
47617;SDS011;33336;36.728;-4.414;2023-03-23T09:40:54;9.13;;;3.78;;
47617;SDS011;33336;36.728;-4.414;2023-03-23T09:46:11;10.88;;;3.63;;
47617;SDS011;33336;36.728;-4.414;2023-03-23T09:51:33;7.20;;;3.67;;
47617;SDS011;33336;36.728;-4.414;2023-03-23T09:56:44;8.10;;;4.35;;
47617;SDS011;33336;36.728;-4.414;2023-03-23T10:01:49;8.13;;;4.63;;
47617;SDS011;33336;36.728;-4.414;2023-03-23T10:06:54;9.70;;;5.10;;
47617;SDS011;33336;36.728;-4.414;2023-03-23T10:12:04;6.33;;;4.47;;
47617;SDS011;33336;36.728;-4.414;2023-03-23T10:17:13;9.27;;;4.60;;
47617;SDS011;33336;36.728;-4.414;2023-03-23T10:22:21;7.57;;;3.85;;
47617;SDS011;33336;36.728;-4.414;2023-03-23T10:27:31;4.68;;;3.10;;
47617;SDS011;33336;36.728;-4.414;2023-03-23T10:32:40;3.80;;;2.33;;
47617;SDS011;33336;36.728;-4.414;2023-03-23T10:37:47;7.15;;;3.15;;
47617;SDS011;33336;36.728;-4.414;2023-03-23T10:42:53;5.60;;;2.75;;
47617;SDS011;33336;36.728;-4.414;2023-03-23T10:47:56;4.38;;;2.53;;
47617;SDS011;33336;36.728;-4.414;2023-03-23T10:53:11;7.53;;;3.72;;
47617;SDS011;33336;36.728;-4.414;2023-03-23T10:58:23;9.02;;;4.88;;
47617;SDS011;33336;36.728;-4.414;2023-03-23T11:03:35;4.55;;;2.72;;
47617;SDS011;33336;36.728;-4.414;2023-03-23T11:08:51;5.97;;;3.35;;
47617;SDS011;33336;36.728;-4.414;2023-03-23T11:14:00;4.15;;;3.08;;
47617;SDS011;33336;36.728;-4.414;2023-03-23T11:19:11;5.07;;;3.33;;
47617;SDS011;33336;36.728;-4.414;2023-03-23T11:24:16;7.95;;;3.33;;
47617;SDS011;33336;36.728;-4.414;2023-03-23T11:29:21;3.85;;;2.80;;
47617;SDS011;33336;36.728;-4.414;2023-03-23T11:34:30;3.75;;;2.80;;
47617;SDS011;33336;36.728;-4.414;2023-03-23T11:39:45;5.75;;;2.85;;
47617;SDS011;33336;36.728;-4.414;2023-03-23T11:44:52;6.90;;;2.97;;
47617;SDS011;33336;36.728;-4.414;2023-03-23T11:49:56;7.68;;;3.50;;
47617;SDS011;33336;36.728;-4.414;2023-03-23T11:55:08;2.90;;;1.73;;
47617;SDS011;33336;36.728;-4.414;2023-03-23T12:00:17;5.07;;;3.13;;
47617;SDS011;33336;36.728;-4.414;2023-03-23T12:05:32;4.87;;;3.50;;
47617;SDS011;33336;36.728;-4.414;2023-03-23T12:10:44;6.68;;;2.97;;
47617;SDS011;33336;36.728;-4.414;2023-03-23T12:15:56;12.50;;;4.05;;
47617;SDS011;33336;36.728;-4.414;2023-03-23T12:21:08;6.82;;;2.78;;
47617;SDS011;33336;36.728;-4.414;2023-03-23T12:26:20;6.53;;;2.88;;
47617;SDS011;33336;36.728;-4.414;2023-03-23T12:31:32;4.33;;;2.90;;
47617;SDS011;33336;36.728;-4.414;2023-03-23T12:36:46;3.08;;;2.20;;
47617;SDS011;33336;36.728;-4.414;2023-03-23T12:41:57;5.75;;;2.05;;
47617;SDS011;33336;36.728;-4.414;2023-03-23T12:47:14;5.32;;;2.30;;
47617;SDS011;33336;36.728;-4.414;2023-03-23T12:52:26;3.25;;;2.30;;
47617;SDS011;33336;36.728;-4.414;2023-03-23T12:57:35;3.03;;;1.40;;
47617;SDS011;33336;36.728;-4.414;2023-03-23T13:02:46;3.42;;;1.50;;
47617;SDS011;33336;36.728;-4.414;2023-03-23T13:07:55;4.90;;;1.25;;
47617;SDS011;33336;36.728;-4.414;2023-03-23T13:13:01;2.95;;;1.15;;
47617;SDS011;33336;36.728;-4.414;2023-03-23T13:18:10;3.53;;;0.95;;
47617;SDS011;33336;36.728;-4.414;2023-03-23T13:23:19;4.15;;;1.60;;
47617;SDS011;33336;36.728;-4.414;2023-03-23T13:28:24;3.70;;;1.38;;
47617;SDS011;33336;36.728;-4.414;2023-03-23T13:33:32;2.60;;;1.20;;
47617;SDS011;33336;36.728;-4.414;2023-03-23T13:38:36;1.85;;;0.80;;
47617;SDS011;33336;36.728;-4.414;2023-03-23T13:43:41;6.53;;;1.00;;
47617;SDS011;33336;36.728;-4.414;2023-03-23T13:48:50;3.28;;;0.90;;
47617;SDS011;33336;36.728;-4.414;2023-03-23T13:54:05;1.87;;;0.87;;
47617;SDS011;33336;36.728;-4.414;2023-03-23T13:59:28;7.55;;;1.75;;
47617;SDS011;33336;36.728;-4.414;2023-03-23T14:04:37;2.88;;;1.00;;
47617;SDS011;33336;36.728;-4.414;2023-03-23T14:09:43;3.05;;;1.20;;
47617;SDS011;33336;36.728;-4.414;2023-03-23T14:14:47;3.38;;;1.25;;
47617;SDS011;33336;36.728;-4.414;2023-03-23T14:19:54;1.83;;;1.38;;
47617;SDS011;33336;36.728;-4.414;2023-03-23T14:30:12;4.15;;;1.88;;
47617;SDS011;33336;36.728;-4.414;2023-03-23T14:40:25;5.47;;;2.05;;
47617;SDS011;33336;36.728;-4.414;2023-03-23T14:45:29;3.67;;;2.35;;
47617;SDS011;33336;36.728;-4.414;2023-03-23T14:50:38;4.25;;;1.90;;
47617;SDS011;33336;36.728;-4.414;2023-03-23T15:00:46;4.30;;;2.42;;
47617;SDS011;33336;36.728;-4.414;2023-03-23T15:05:57;3.58;;;2.45;;
47617;SDS011;33336;36.728;-4.414;2023-03-23T15:11:05;3.30;;;2.55;;
47617;SDS011;33336;36.728;-4.414;2023-03-23T15:16:14;8.05;;;2.70;;
47617;SDS011;33336;36.728;-4.414;2023-03-23T15:21:26;5.43;;;3.67;;
47617;SDS011;33336;36.728;-4.414;2023-03-23T15:26:32;3.83;;;1.95;;
47617;SDS011;33336;36.728;-4.414;2023-03-23T15:31:38;8.13;;;2.30;;
47617;SDS011;33336;36.728;-4.414;2023-03-23T15:36:46;7.30;;;2.22;;
47617;SDS011;33336;36.728;-4.414;2023-03-23T15:41:56;4.75;;;1.05;;
47617;SDS011;33336;36.728;-4.414;2023-03-23T15:47:13;6.22;;;1.65;;
47617;SDS011;33336;36.728;-4.414;2023-03-23T15:52:19;8.98;;;2.20;;
47617;SDS011;33336;36.728;-4.414;2023-03-23T15:57:22;15.13;;;1.70;;
47617;SDS011;33336;36.728;-4.414;2023-03-23T16:02:26;8.68;;;1.23;;
47617;SDS011;33336;36.728;-4.414;2023-03-23T16:07:32;3.28;;;0.88;;
47617;SDS011;33336;36.728;-4.414;2023-03-23T16:12:39;2.20;;;1.23;;
47617;SDS011;33336;36.728;-4.414;2023-03-23T16:17:42;4.05;;;1.27;;
47617;SDS011;33336;36.728;-4.414;2023-03-23T16:22:50;1.87;;;0.70;;
47617;SDS011;33336;36.728;-4.414;2023-03-23T16:27:53;2.45;;;0.80;;
47617;SDS011;33336;36.728;-4.414;2023-03-23T16:32:56;3.67;;;1.17;;
47617;SDS011;33336;36.728;-4.414;2023-03-23T16:38:01;5.18;;;1.30;;
47617;SDS011;33336;36.728;-4.414;2023-03-23T16:43:05;5.00;;;0.93;;
47617;SDS011;33336;36.728;-4.414;2023-03-23T16:48:08;2.88;;;1.02;;
47617;SDS011;33336;36.728;-4.414;2023-03-23T16:53:13;2.47;;;1.83;;
47617;SDS011;33336;36.728;-4.414;2023-03-23T16:58:16;1.98;;;1.05;;
47617;SDS011;33336;36.728;-4.414;2023-03-23T17:03:20;2.30;;;0.80;;
47617;SDS011;33336;36.728;-4.414;2023-03-23T17:08:25;4.15;;;0.98;;
47617;SDS011;33336;36.728;-4.414;2023-03-23T17:13:29;2.15;;;0.80;;
47617;SDS011;33336;36.728;-4.414;2023-03-23T17:18:32;2.45;;;0.93;;
47617;SDS011;33336;36.728;-4.414;2023-03-23T17:23:37;1.90;;;1.05;;
47617;SDS011;33336;36.728;-4.414;2023-03-23T17:28:40;3.40;;;1.15;;
47617;SDS011;33336;36.728;-4.414;2023-03-23T17:33:43;3.38;;;1.25;;
47617;SDS011;33336;36.728;-4.414;2023-03-23T17:38:47;1.92;;;0.90;;
47617;SDS011;33336;36.728;-4.414;2023-03-23T17:43:51;2.23;;;1.77;;
47617;SDS011;33336;36.728;-4.414;2023-03-23T17:48:54;2.08;;;1.65;;
47617;SDS011;33336;36.728;-4.414;2023-03-23T17:53:58;1.77;;;1.17;;
47617;SDS011;33336;36.728;-4.414;2023-03-23T17:59:01;2.97;;;0.80;;
47617;SDS011;33336;36.728;-4.414;2023-03-23T18:04:05;3.22;;;1.33;;
47617;SDS011;33336;36.728;-4.414;2023-03-23T18:09:09;1.00;;;0.90;;
47617;SDS011;33336;36.728;-4.414;2023-03-23T18:14:13;3.42;;;1.30;;
47617;SDS011;33336;36.728;-4.414;2023-03-23T18:19:16;1.45;;;1.08;;
47617;SDS011;33336;36.728;-4.414;2023-03-23T18:24:20;2.70;;;1.20;;
47617;SDS011;33336;36.728;-4.414;2023-03-23T18:29:23;1.25;;;0.73;;
47617;SDS011;33336;36.728;-4.414;2023-03-23T18:34:26;4.82;;;1.48;;
47617;SDS011;33336;36.728;-4.414;2023-03-23T18:39:32;1.88;;;1.40;;
47617;SDS011;33336;36.728;-4.414;2023-03-23T18:44:35;3.28;;;1.55;;
47617;SDS011;33336;36.728;-4.414;2023-03-23T18:49:38;2.30;;;1.60;;
47617;SDS011;33336;36.728;-4.414;2023-03-23T18:54:42;6.07;;;1.65;;
47617;SDS011;33336;36.728;-4.414;2023-03-23T18:59:45;2.95;;;1.23;;
47617;SDS011;33336;36.728;-4.414;2023-03-23T19:04:49;2.60;;;1.30;;
47617;SDS011;33336;36.728;-4.414;2023-03-23T19:09:54;2.00;;;1.38;;
47617;SDS011;33336;36.728;-4.414;2023-03-23T19:14:57;2.80;;;1.80;;
47617;SDS011;33336;36.728;-4.414;2023-03-23T19:20:00;2.92;;;1.60;;
47617;SDS011;33336;36.728;-4.414;2023-03-23T19:25:07;2.03;;;1.30;;
47617;SDS011;33336;36.728;-4.414;2023-03-23T19:30:10;6.65;;;0.90;;
47617;SDS011;33336;36.728;-4.414;2023-03-23T19:35:14;4.03;;;1.25;;
47617;SDS011;33336;36.728;-4.414;2023-03-23T19:40:18;2.15;;;1.50;;
47617;SDS011;33336;36.728;-4.414;2023-03-23T19:45:21;3.55;;;1.48;;
47617;SDS011;33336;36.728;-4.414;2023-03-23T19:50:24;3.20;;;1.70;;
47617;SDS011;33336;36.728;-4.414;2023-03-23T19:55:29;2.25;;;1.10;;
47617;SDS011;33336;36.728;-4.414;2023-03-23T20:00:32;5.38;;;1.35;;
47617;SDS011;33336;36.728;-4.414;2023-03-23T20:05:36;4.63;;;0.95;;
47617;SDS011;33336;36.728;-4.414;2023-03-23T20:10:43;5.32;;;1.40;;
47617;SDS011;33336;36.728;-4.414;2023-03-23T20:15:50;2.70;;;1.08;;
47617;SDS011;33336;36.728;-4.414;2023-03-23T20:20:58;2.15;;;1.35;;
47617;SDS011;33336;36.728;-4.414;2023-03-23T20:26:05;7.13;;;2.50;;
47617;SDS011;33336;36.728;-4.414;2023-03-23T20:36:14;6.60;;;3.35;;
47617;SDS011;33336;36.728;-4.414;2023-03-23T20:41:20;3.72;;;2.08;;
47617;SDS011;33336;36.728;-4.414;2023-03-23T20:46:24;3.97;;;2.28;;
47617;SDS011;33336;36.728;-4.414;2023-03-23T20:51:27;3.05;;;2.22;;
47617;SDS011;33336;36.728;-4.414;2023-03-23T20:56:33;4.32;;;1.88;;
47617;SDS011;33336;36.728;-4.414;2023-03-23T21:01:36;3.33;;;2.20;;
47617;SDS011;33336;36.728;-4.414;2023-03-23T21:06:40;6.47;;;1.65;;
47617;SDS011;33336;36.728;-4.414;2023-03-23T21:11:45;4.53;;;2.10;;
47617;SDS011;33336;36.728;-4.414;2023-03-23T21:16:49;3.47;;;2.35;;
47617;SDS011;33336;36.728;-4.414;2023-03-23T21:21:52;9.20;;;4.70;;
47617;SDS011;33336;36.728;-4.414;2023-03-23T21:26:58;7.05;;;2.65;;
47617;SDS011;33336;36.728;-4.414;2023-03-23T21:32:02;7.18;;;2.60;;
47617;SDS011;33336;36.728;-4.414;2023-03-23T21:37:06;5.60;;;2.97;;
47617;SDS011;33336;36.728;-4.414;2023-03-23T21:42:10;6.78;;;2.35;;
47617;SDS011;33336;36.728;-4.414;2023-03-23T21:47:15;10.52;;;2.97;;
47617;SDS011;33336;36.728;-4.414;2023-03-23T21:52:20;10.40;;;3.35;;
47617;SDS011;33336;36.728;-4.414;2023-03-23T21:57:27;8.60;;;2.53;;
47617;SDS011;33336;36.728;-4.414;2023-03-23T22:02:30;6.32;;;3.10;;
47617;SDS011;33336;36.728;-4.414;2023-03-23T22:07:34;6.00;;;2.75;;
47617;SDS011;33336;36.728;-4.414;2023-03-23T22:12:40;9.95;;;2.78;;
47617;SDS011;33336;36.728;-4.414;2023-03-23T22:17:50;8.60;;;3.10;;
47617;SDS011;33336;36.728;-4.414;2023-03-23T22:22:53;5.95;;;2.72;;
47617;SDS011;33336;36.728;-4.414;2023-03-23T22:27:57;10.35;;;2.90;;
47617;SDS011;33336;36.728;-4.414;2023-03-23T22:33:01;6.60;;;2.17;;
47617;SDS011;33336;36.728;-4.414;2023-03-23T22:38:05;5.10;;;2.85;;
47617;SDS011;33336;36.728;-4.414;2023-03-23T22:43:09;11.85;;;3.08;;
47617;SDS011;33336;36.728;-4.414;2023-03-23T22:48:13;8.38;;;2.80;;
47617;SDS011;33336;36.728;-4.414;2023-03-23T22:53:17;6.78;;;3.03;;
47617;SDS011;33336;36.728;-4.414;2023-03-23T22:58:23;8.05;;;2.60;;
47617;SDS011;33336;36.728;-4.414;2023-03-23T23:03:26;11.18;;;3.10;;
47617;SDS011;33336;36.728;-4.414;2023-03-23T23:08:31;7.68;;;2.80;;
47617;SDS011;33336;36.728;-4.414;2023-03-23T23:13:36;7.90;;;2.58;;
47617;SDS011;33336;36.728;-4.414;2023-03-23T23:18:40;6.75;;;2.22;;
47617;SDS011;33336;36.728;-4.414;2023-03-23T23:23:43;10.02;;;1.92;;
47617;SDS011;33336;36.728;-4.414;2023-03-23T23:28:50;7.00;;;2.97;;
47617;SDS011;33336;36.728;-4.414;2023-03-23T23:33:54;5.63;;;2.33;;
47617;SDS011;33336;36.728;-4.414;2023-03-23T23:38:59;4.35;;;2.15;;
47617;SDS011;33336;36.728;-4.414;2023-03-23T23:44:06;2.93;;;1.57;;
47617;SDS011;33336;36.728;-4.414;2023-03-23T23:49:10;5.25;;;2.00;;
47617;SDS011;33336;36.728;-4.414;2023-03-23T23:54:13;8.77;;;2.08;;
47617;SDS011;33336;36.728;-4.414;2023-03-23T23:59:24;9.13;;;2.40;;
